sensor_id;sensor_type;location;lat;lon;timestamp;P1;durP1;ratioP1;P2;durP2;ratioP2
20828;SDS011;10575;50.124;8.582;2023-02-05T00:02:00;15.43;;;6.60;;
20828;SDS011;10575;50.124;8.582;2023-02-05T00:04:26;12.93;;;7.28;;
20828;SDS011;10575;50.124;8.582;2023-02-05T00:06:51;19.40;;;7.75;;
20828;SDS011;10575;50.124;8.582;2023-02-05T00:09:17;17.15;;;8.25;;
20828;SDS011;10575;50.124;8.582;2023-02-05T00:11:42;16.63;;;7.55;;
20828;SDS011;10575;50.124;8.582;2023-02-05T00:14:08;13.85;;;7.25;;
20828;SDS011;10575;50.124;8.582;2023-02-05T00:16:34;17.48;;;7.82;;
20828;SDS011;10575;50.124;8.582;2023-02-05T00:19:00;12.95;;;7.40;;
20828;SDS011;10575;50.124;8.582;2023-02-05T00:21:26;17.48;;;7.38;;
20828;SDS011;10575;50.124;8.582;2023-02-05T00:23:52;15.13;;;7.47;;
20828;SDS011;10575;50.124;8.582;2023-02-05T00:26:17;14.95;;;7.60;;
20828;SDS011;10575;50.124;8.582;2023-02-05T00:28:44;13.52;;;7.18;;
20828;SDS011;10575;50.124;8.582;2023-02-05T00:31:11;15.43;;;7.90;;
20828;SDS011;10575;50.124;8.582;2023-02-05T00:33:39;16.50;;;7.68;;
20828;SDS011;10575;50.124;8.582;2023-02-05T00:36:06;17.52;;;7.63;;
20828;SDS011;10575;50.124;8.582;2023-02-05T00:38:32;14.43;;;7.65;;
20828;SDS011;10575;50.124;8.582;2023-02-05T00:40:58;15.88;;;7.72;;
20828;SDS011;10575;50.124;8.582;2023-02-05T00:43:23;13.15;;;6.90;;
20828;SDS011;10575;50.124;8.582;2023-02-05T00:45:49;13.43;;;6.47;;
20828;SDS011;10575;50.124;8.582;2023-02-05T00:48:14;14.38;;;7.10;;
20828;SDS011;10575;50.124;8.582;2023-02-05T00:50:40;14.02;;;7.40;;
20828;SDS011;10575;50.124;8.582;2023-02-05T00:53:06;14.20;;;7.80;;
20828;SDS011;10575;50.124;8.582;2023-02-05T00:55:32;15.35;;;7.32;;
20828;SDS011;10575;50.124;8.582;2023-02-05T00:57:57;15.25;;;7.32;;
20828;SDS011;10575;50.124;8.582;2023-02-05T01:00:25;12.70;;;6.97;;
20828;SDS011;10575;50.124;8.582;2023-02-05T01:02:51;16.25;;;7.15;;
20828;SDS011;10575;50.124;8.582;2023-02-05T01:05:17;12.70;;;7.18;;
20828;SDS011;10575;50.124;8.582;2023-02-05T01:07:43;14.18;;;7.50;;
20828;SDS011;10575;50.124;8.582;2023-02-05T01:10:08;12.20;;;7.65;;
20828;SDS011;10575;50.124;8.582;2023-02-05T01:12:34;12.52;;;6.50;;
20828;SDS011;10575;50.124;8.582;2023-02-05T01:15:00;13.25;;;7.05;;
20828;SDS011;10575;50.124;8.582;2023-02-05T01:17:29;12.73;;;6.65;;
20828;SDS011;10575;50.124;8.582;2023-02-05T01:19:54;12.57;;;6.15;;
20828;SDS011;10575;50.124;8.582;2023-02-05T01:22:20;14.00;;;6.97;;
20828;SDS011;10575;50.124;8.582;2023-02-05T01:24:45;11.30;;;6.25;;
20828;SDS011;10575;50.124;8.582;2023-02-05T01:27:11;12.73;;;7.13;;
20828;SDS011;10575;50.124;8.582;2023-02-05T01:29:36;14.40;;;7.78;;
20828;SDS011;10575;50.124;8.582;2023-02-05T01:32:02;10.77;;;6.70;;
20828;SDS011;10575;50.124;8.582;2023-02-05T01:34:27;18.15;;;6.55;;
20828;SDS011;10575;50.124;8.582;2023-02-05T01:36:53;13.18;;;6.45;;
20828;SDS011;10575;50.124;8.582;2023-02-05T01:39:19;12.55;;;6.72;;
20828;SDS011;10575;50.124;8.582;2023-02-05T01:41:44;15.15;;;7.07;;
20828;SDS011;10575;50.124;8.582;2023-02-05T01:46:38;16.70;;;7.93;;
20828;SDS011;10575;50.124;8.582;2023-02-05T01:49:07;11.93;;;7.22;;
20828;SDS011;10575;50.124;8.582;2023-02-05T01:51:36;14.75;;;7.07;;
20828;SDS011;10575;50.124;8.582;2023-02-05T01:54:02;15.63;;;7.30;;
20828;SDS011;10575;50.124;8.582;2023-02-05T01:56:50;12.95;;;6.43;;
20828;SDS011;10575;50.124;8.582;2023-02-05T01:59:18;14.75;;;7.07;;
20828;SDS011;10575;50.124;8.582;2023-02-05T02:01:48;10.57;;;6.82;;
20828;SDS011;10575;50.124;8.582;2023-02-05T02:04:14;10.90;;;6.55;;
20828;SDS011;10575;50.124;8.582;2023-02-05T02:06:49;13.75;;;7.20;;
20828;SDS011;10575;50.124;8.582;2023-02-05T02:09:14;14.50;;;7.07;;
20828;SDS011;10575;50.124;8.582;2023-02-05T02:11:40;13.85;;;7.47;;
20828;SDS011;10575;50.124;8.582;2023-02-05T02:14:07;13.52;;;6.45;;
20828;SDS011;10575;50.124;8.582;2023-02-05T02:16:34;12.15;;;6.55;;
20828;SDS011;10575;50.124;8.582;2023-02-05T02:19:03;14.82;;;6.78;;
20828;SDS011;10575;50.124;8.582;2023-02-05T02:21:51;14.10;;;6.13;;
20828;SDS011;10575;50.124;8.582;2023-02-05T02:24:40;12.48;;;6.20;;
20828;SDS011;10575;50.124;8.582;2023-02-05T02:30:00;14.60;;;6.88;;
20828;SDS011;10575;50.124;8.582;2023-02-05T02:35:14;11.82;;;6.60;;
20828;SDS011;10575;50.124;8.582;2023-02-05T02:38:05;10.80;;;7.00;;
20828;SDS011;10575;50.124;8.582;2023-02-05T02:40:37;14.30;;;6.88;;
20828;SDS011;10575;50.124;8.582;2023-02-05T02:43:13;10.60;;;5.88;;
20828;SDS011;10575;50.124;8.582;2023-02-05T02:45:45;10.90;;;6.25;;
20828;SDS011;10575;50.124;8.582;2023-02-05T02:48:15;13.15;;;6.60;;
20828;SDS011;10575;50.124;8.582;2023-02-05T02:50:44;14.82;;;6.65;;
20828;SDS011;10575;50.124;8.582;2023-02-05T02:53:16;12.80;;;6.60;;
20828;SDS011;10575;50.124;8.582;2023-02-05T02:55:46;14.68;;;6.55;;
20828;SDS011;10575;50.124;8.582;2023-02-05T02:58:24;14.95;;;6.53;;
20828;SDS011;10575;50.124;8.582;2023-02-05T03:00:55;13.95;;;6.78;;
20828;SDS011;10575;50.124;8.582;2023-02-05T03:03:22;11.98;;;6.70;;
20828;SDS011;10575;50.124;8.582;2023-02-05T03:05:50;12.98;;;6.95;;
20828;SDS011;10575;50.124;8.582;2023-02-05T03:08:21;12.88;;;6.53;;
20828;SDS011;10575;50.124;8.582;2023-02-05T03:10:54;13.13;;;6.32;;
20828;SDS011;10575;50.124;8.582;2023-02-05T03:13:25;10.52;;;6.25;;
20828;SDS011;10575;50.124;8.582;2023-02-05T03:15:51;10.70;;;6.03;;
20828;SDS011;10575;50.124;8.582;2023-02-05T03:18:17;16.38;;;7.85;;
20828;SDS011;10575;50.124;8.582;2023-02-05T03:20:54;11.95;;;6.50;;
20828;SDS011;10575;50.124;8.582;2023-02-05T03:23:22;11.82;;;6.40;;
20828;SDS011;10575;50.124;8.582;2023-02-05T03:25:47;12.20;;;6.82;;
20828;SDS011;10575;50.124;8.582;2023-02-05T03:28:13;14.18;;;7.03;;
20828;SDS011;10575;50.124;8.582;2023-02-05T03:36:08;12.30;;;6.68;;
20828;SDS011;10575;50.124;8.582;2023-02-05T03:46:39;12.05;;;6.75;;
20828;SDS011;10575;50.124;8.582;2023-02-05T03:49:21;14.57;;;6.85;;
20828;SDS011;10575;50.124;8.582;2023-02-05T03:52:18;12.38;;;6.28;;
20828;SDS011;10575;50.124;8.582;2023-02-05T03:57:29;13.02;;;7.70;;
20828;SDS011;10575;50.124;8.582;2023-02-05T04:00:00;13.38;;;6.50;;
20828;SDS011;10575;50.124;8.582;2023-02-05T04:02:27;13.45;;;6.82;;
20828;SDS011;10575;50.124;8.582;2023-02-05T04:04:53;13.43;;;6.10;;
20828;SDS011;10575;50.124;8.582;2023-02-05T04:07:18;11.20;;;6.53;;
20828;SDS011;10575;50.124;8.582;2023-02-05T04:09:44;12.38;;;6.20;;
20828;SDS011;10575;50.124;8.582;2023-02-05T04:12:09;10.88;;;6.55;;
20828;SDS011;10575;50.124;8.582;2023-02-05T04:14:35;14.25;;;7.32;;
20828;SDS011;10575;50.124;8.582;2023-02-05T04:17:01;12.02;;;6.03;;
20828;SDS011;10575;50.124;8.582;2023-02-05T04:19:27;12.75;;;6.90;;
20828;SDS011;10575;50.124;8.582;2023-02-05T04:21:52;9.68;;;6.32;;
20828;SDS011;10575;50.124;8.582;2023-02-05T04:24:18;10.27;;;6.10;;
20828;SDS011;10575;50.124;8.582;2023-02-05T04:26:43;13.98;;;6.60;;
20828;SDS011;10575;50.124;8.582;2023-02-05T04:29:09;14.45;;;6.35;;
20828;SDS011;10575;50.124;8.582;2023-02-05T04:31:34;12.32;;;6.10;;
20828;SDS011;10575;50.124;8.582;2023-02-05T04:34:01;10.82;;;6.47;;
20828;SDS011;10575;50.124;8.582;2023-02-05T04:36:26;12.98;;;6.80;;
20828;SDS011;10575;50.124;8.582;2023-02-05T04:38:52;12.73;;;6.80;;
20828;SDS011;10575;50.124;8.582;2023-02-05T04:41:17;11.20;;;6.90;;
20828;SDS011;10575;50.124;8.582;2023-02-05T04:43:43;12.45;;;6.22;;
20828;SDS011;10575;50.124;8.582;2023-02-05T04:46:09;14.60;;;6.80;;
20828;SDS011;10575;50.124;8.582;2023-02-05T04:48:35;13.75;;;6.32;;
20828;SDS011;10575;50.124;8.582;2023-02-05T04:51:08;13.77;;;6.28;;
20828;SDS011;10575;50.124;8.582;2023-02-05T04:53:35;11.27;;;6.10;;
20828;SDS011;10575;50.124;8.582;2023-02-05T04:56:05;11.82;;;6.22;;
20828;SDS011;10575;50.124;8.582;2023-02-05T04:58:32;9.73;;;6.22;;
20828;SDS011;10575;50.124;8.582;2023-02-05T05:00:58;11.40;;;6.57;;
20828;SDS011;10575;50.124;8.582;2023-02-05T05:03:23;13.73;;;6.50;;
20828;SDS011;10575;50.124;8.582;2023-02-05T05:05:49;13.13;;;6.55;;
20828;SDS011;10575;50.124;8.582;2023-02-05T05:08:14;11.20;;;6.47;;
20828;SDS011;10575;50.124;8.582;2023-02-05T05:10:40;12.32;;;6.75;;
20828;SDS011;10575;50.124;8.582;2023-02-05T05:13:06;9.70;;;5.95;;
20828;SDS011;10575;50.124;8.582;2023-02-05T05:15:31;10.82;;;6.53;;
20828;SDS011;10575;50.124;8.582;2023-02-05T05:17:57;13.10;;;6.35;;
20828;SDS011;10575;50.124;8.582;2023-02-05T05:20:22;12.65;;;6.47;;
20828;SDS011;10575;50.124;8.582;2023-02-05T05:22:48;12.50;;;6.85;;
20828;SDS011;10575;50.124;8.582;2023-02-05T05:25:13;14.43;;;5.75;;
20828;SDS011;10575;50.124;8.582;2023-02-05T05:27:39;11.02;;;6.88;;
20828;SDS011;10575;50.124;8.582;2023-02-05T05:30:04;12.30;;;6.20;;
20828;SDS011;10575;50.124;8.582;2023-02-05T05:32:30;12.85;;;6.30;;
20828;SDS011;10575;50.124;8.582;2023-02-05T05:34:56;11.43;;;6.32;;
20828;SDS011;10575;50.124;8.582;2023-02-05T05:37:21;11.88;;;6.13;;
20828;SDS011;10575;50.124;8.582;2023-02-05T05:39:47;9.98;;;6.47;;
20828;SDS011;10575;50.124;8.582;2023-02-05T05:42:31;12.15;;;6.07;;
20828;SDS011;10575;50.124;8.582;2023-02-05T05:45:15;14.98;;;6.97;;
20828;SDS011;10575;50.124;8.582;2023-02-05T05:47:40;16.50;;;7.28;;
20828;SDS011;10575;50.124;8.582;2023-02-05T05:50:06;13.23;;;6.22;;
20828;SDS011;10575;50.124;8.582;2023-02-05T05:52:32;11.77;;;6.90;;
20828;SDS011;10575;50.124;8.582;2023-02-05T05:54:58;16.17;;;6.55;;
20828;SDS011;10575;50.124;8.582;2023-02-05T05:57:23;13.68;;;6.85;;
20828;SDS011;10575;50.124;8.582;2023-02-05T05:59:49;11.73;;;6.50;;
20828;SDS011;10575;50.124;8.582;2023-02-05T06:02:15;11.98;;;6.70;;
20828;SDS011;10575;50.124;8.582;2023-02-05T06:04:41;12.98;;;6.53;;
20828;SDS011;10575;50.124;8.582;2023-02-05T06:07:07;15.55;;;6.75;;
20828;SDS011;10575;50.124;8.582;2023-02-05T06:09:32;12.73;;;7.18;;
20828;SDS011;10575;50.124;8.582;2023-02-05T06:11:58;14.27;;;7.00;;
20828;SDS011;10575;50.124;8.582;2023-02-05T06:14:23;13.43;;;6.57;;
20828;SDS011;10575;50.124;8.582;2023-02-05T06:16:49;14.95;;;6.97;;
20828;SDS011;10575;50.124;8.582;2023-02-05T06:19:16;14.55;;;6.90;;
20828;SDS011;10575;50.124;8.582;2023-02-05T06:21:42;10.35;;;6.45;;
20828;SDS011;10575;50.124;8.582;2023-02-05T06:24:07;17.98;;;6.65;;
20828;SDS011;10575;50.124;8.582;2023-02-05T06:26:33;17.73;;;7.80;;
20828;SDS011;10575;50.124;8.582;2023-02-05T06:28:58;13.25;;;6.95;;
20828;SDS011;10575;50.124;8.582;2023-02-05T06:31:27;12.75;;;6.65;;
20828;SDS011;10575;50.124;8.582;2023-02-05T06:33:53;15.38;;;7.10;;
20828;SDS011;10575;50.124;8.582;2023-02-05T06:36:19;13.25;;;7.63;;
20828;SDS011;10575;50.124;8.582;2023-02-05T06:38:44;12.15;;;6.65;;
20828;SDS011;10575;50.124;8.582;2023-02-05T06:41:10;13.35;;;6.55;;
20828;SDS011;10575;50.124;8.582;2023-02-05T06:43:35;19.30;;;7.43;;
20828;SDS011;10575;50.124;8.582;2023-02-05T06:46:01;17.83;;;7.15;;
20828;SDS011;10575;50.124;8.582;2023-02-05T06:48:26;14.10;;;6.90;;
20828;SDS011;10575;50.124;8.582;2023-02-05T06:50:52;11.80;;;6.60;;
20828;SDS011;10575;50.124;8.582;2023-02-05T06:53:17;14.38;;;6.90;;
20828;SDS011;10575;50.124;8.582;2023-02-05T06:55:43;18.60;;;7.38;;
20828;SDS011;10575;50.124;8.582;2023-02-05T06:58:08;16.08;;;7.20;;
20828;SDS011;10575;50.124;8.582;2023-02-05T07:00:34;14.45;;;7.70;;
20828;SDS011;10575;50.124;8.582;2023-02-05T07:03:00;16.08;;;7.90;;
20828;SDS011;10575;50.124;8.582;2023-02-05T07:05:26;18.35;;;8.38;;
20828;SDS011;10575;50.124;8.582;2023-02-05T07:07:51;16.70;;;7.05;;
20828;SDS011;10575;50.124;8.582;2023-02-05T07:10:17;14.18;;;7.43;;
20828;SDS011;10575;50.124;8.582;2023-02-05T07:12:43;12.75;;;6.60;;
20828;SDS011;10575;50.124;8.582;2023-02-05T07:15:08;15.60;;;7.43;;
20828;SDS011;10575;50.124;8.582;2023-02-05T07:17:34;18.08;;;8.05;;
20828;SDS011;10575;50.124;8.582;2023-02-05T07:19:59;12.27;;;6.82;;
20828;SDS011;10575;50.124;8.582;2023-02-05T07:22:25;19.40;;;8.30;;
20828;SDS011;10575;50.124;8.582;2023-02-05T07:24:50;19.63;;;7.88;;
20828;SDS011;10575;50.124;8.582;2023-02-05T07:27:16;18.27;;;8.73;;
20828;SDS011;10575;50.124;8.582;2023-02-05T07:29:42;17.17;;;8.45;;
20828;SDS011;10575;50.124;8.582;2023-02-05T07:32:07;19.27;;;7.57;;
20828;SDS011;10575;50.124;8.582;2023-02-05T07:34:33;19.00;;;8.38;;
20828;SDS011;10575;50.124;8.582;2023-02-05T07:36:58;31.10;;;9.15;;
20828;SDS011;10575;50.124;8.582;2023-02-05T07:39:24;15.93;;;8.75;;
20828;SDS011;10575;50.124;8.582;2023-02-05T07:41:51;28.15;;;8.90;;
20828;SDS011;10575;50.124;8.582;2023-02-05T07:44:17;17.35;;;8.80;;
20828;SDS011;10575;50.124;8.582;2023-02-05T07:46:43;23.92;;;9.50;;
20828;SDS011;10575;50.124;8.582;2023-02-05T07:49:09;17.15;;;8.05;;
20828;SDS011;10575;50.124;8.582;2023-02-05T07:51:35;23.88;;;9.18;;
20828;SDS011;10575;50.124;8.582;2023-02-05T07:54:04;24.45;;;9.35;;
20828;SDS011;10575;50.124;8.582;2023-02-05T07:56:33;23.90;;;10.07;;
20828;SDS011;10575;50.124;8.582;2023-02-05T07:58:59;23.17;;;9.35;;
20828;SDS011;10575;50.124;8.582;2023-02-05T08:01:24;18.65;;;8.32;;
20828;SDS011;10575;50.124;8.582;2023-02-05T08:03:50;15.77;;;9.07;;
20828;SDS011;10575;50.124;8.582;2023-02-05T08:06:15;17.30;;;8.82;;
20828;SDS011;10575;50.124;8.582;2023-02-05T08:08:41;19.02;;;9.27;;
20828;SDS011;10575;50.124;8.582;2023-02-05T08:11:07;16.60;;;8.68;;
20828;SDS011;10575;50.124;8.582;2023-02-05T08:13:36;21.42;;;9.60;;
20828;SDS011;10575;50.124;8.582;2023-02-05T08:16:05;19.98;;;9.50;;
20828;SDS011;10575;50.124;8.582;2023-02-05T08:18:31;21.85;;;10.50;;
20828;SDS011;10575;50.124;8.582;2023-02-05T08:20:57;21.15;;;10.50;;
20828;SDS011;10575;50.124;8.582;2023-02-05T08:23:23;19.50;;;9.65;;
20828;SDS011;10575;50.124;8.582;2023-02-05T08:25:52;21.80;;;10.55;;
20828;SDS011;10575;50.124;8.582;2023-02-05T08:28:21;24.95;;;9.95;;
20828;SDS011;10575;50.124;8.582;2023-02-05T08:30:49;23.17;;;10.75;;
20828;SDS011;10575;50.124;8.582;2023-02-05T08:33:14;20.55;;;10.10;;
20828;SDS011;10575;50.124;8.582;2023-02-05T08:35:40;23.77;;;10.35;;
20828;SDS011;10575;50.124;8.582;2023-02-05T08:38:06;23.85;;;10.80;;
20828;SDS011;10575;50.124;8.582;2023-02-05T08:40:32;24.42;;;11.50;;
20828;SDS011;10575;50.124;8.582;2023-02-05T08:42:58;26.33;;;11.55;;
20828;SDS011;10575;50.124;8.582;2023-02-05T08:45:24;26.05;;;11.00;;
20828;SDS011;10575;50.124;8.582;2023-02-05T08:47:50;26.35;;;11.38;;
20828;SDS011;10575;50.124;8.582;2023-02-05T08:50:17;22.52;;;11.25;;
20828;SDS011;10575;50.124;8.582;2023-02-05T08:52:43;22.20;;;10.73;;
20828;SDS011;10575;50.124;8.582;2023-02-05T08:55:08;21.17;;;10.30;;
20828;SDS011;10575;50.124;8.582;2023-02-05T08:57:34;22.52;;;10.82;;
20828;SDS011;10575;50.124;8.582;2023-02-05T09:00:00;23.33;;;11.13;;
20828;SDS011;10575;50.124;8.582;2023-02-05T09:02:26;27.50;;;11.88;;
20828;SDS011;10575;50.124;8.582;2023-02-05T09:04:51;19.88;;;11.15;;
20828;SDS011;10575;50.124;8.582;2023-02-05T09:07:16;26.55;;;12.02;;
20828;SDS011;10575;50.124;8.582;2023-02-05T09:09:42;25.00;;;11.07;;
20828;SDS011;10575;50.124;8.582;2023-02-05T09:12:08;17.80;;;11.23;;
20828;SDS011;10575;50.124;8.582;2023-02-05T09:14:37;20.00;;;10.65;;
20828;SDS011;10575;50.124;8.582;2023-02-05T09:17:07;19.58;;;11.70;;
20828;SDS011;10575;50.124;8.582;2023-02-05T09:19:34;20.73;;;11.07;;
20828;SDS011;10575;50.124;8.582;2023-02-05T09:22:01;23.33;;;10.70;;
20828;SDS011;10575;50.124;8.582;2023-02-05T09:24:27;24.73;;;10.43;;
20828;SDS011;10575;50.124;8.582;2023-02-05T09:26:53;19.40;;;10.45;;
20828;SDS011;10575;50.124;8.582;2023-02-05T09:29:19;19.75;;;11.20;;
20828;SDS011;10575;50.124;8.582;2023-02-05T09:31:45;20.58;;;9.90;;
20828;SDS011;10575;50.124;8.582;2023-02-05T09:34:10;22.60;;;11.30;;
20828;SDS011;10575;50.124;8.582;2023-02-05T09:36:36;22.90;;;10.88;;
20828;SDS011;10575;50.124;8.582;2023-02-05T09:39:02;20.05;;;10.35;;
20828;SDS011;10575;50.124;8.582;2023-02-05T09:41:35;29.15;;;12.35;;
20828;SDS011;10575;50.124;8.582;2023-02-05T09:49:34;26.63;;;11.95;;
20828;SDS011;10575;50.124;8.582;2023-02-05T09:52:21;20.17;;;11.05;;
20828;SDS011;10575;50.124;8.582;2023-02-05T09:54:50;28.83;;;12.98;;
20828;SDS011;10575;50.124;8.582;2023-02-05T09:57:31;26.13;;;12.88;;
20828;SDS011;10575;50.124;8.582;2023-02-05T09:59:58;25.60;;;12.45;;
20828;SDS011;10575;50.124;8.582;2023-02-05T10:02:30;24.85;;;11.80;;
20828;SDS011;10575;50.124;8.582;2023-02-05T10:05:01;25.58;;;13.20;;
20828;SDS011;10575;50.124;8.582;2023-02-05T10:07:33;29.30;;;13.25;;
20828;SDS011;10575;50.124;8.582;2023-02-05T10:10:26;26.13;;;13.10;;
20828;SDS011;10575;50.124;8.582;2023-02-05T10:13:04;23.92;;;12.35;;
20828;SDS011;10575;50.124;8.582;2023-02-05T10:15:50;25.98;;;13.00;;
20828;SDS011;10575;50.124;8.582;2023-02-05T10:18:37;28.25;;;13.35;;
20828;SDS011;10575;50.124;8.582;2023-02-05T10:21:30;23.42;;;12.20;;
20828;SDS011;10575;50.124;8.582;2023-02-05T10:27:18;29.35;;;12.98;;
20828;SDS011;10575;50.124;8.582;2023-02-05T10:29:55;28.77;;;13.77;;
20828;SDS011;10575;50.124;8.582;2023-02-05T10:32:55;27.08;;;13.25;;
20828;SDS011;10575;50.124;8.582;2023-02-05T10:35:25;26.67;;;13.55;;
20828;SDS011;10575;50.124;8.582;2023-02-05T10:37:56;33.65;;;14.15;;
20828;SDS011;10575;50.124;8.582;2023-02-05T10:40:23;32.78;;;14.93;;
20828;SDS011;10575;50.124;8.582;2023-02-05T10:42:54;30.27;;;14.20;;
20828;SDS011;10575;50.124;8.582;2023-02-05T10:45:26;34.00;;;14.15;;
20828;SDS011;10575;50.124;8.582;2023-02-05T10:50:30;31.40;;;14.27;;
20828;SDS011;10575;50.124;8.582;2023-02-05T10:53:24;26.02;;;13.63;;
20828;SDS011;10575;50.124;8.582;2023-02-05T10:55:51;30.80;;;14.98;;
20828;SDS011;10575;50.124;8.582;2023-02-05T11:01:24;28.98;;;12.60;;
20828;SDS011;10575;50.124;8.582;2023-02-05T11:03:59;25.10;;;13.23;;
20828;SDS011;10575;50.124;8.582;2023-02-05T11:06:37;31.58;;;14.32;;
20828;SDS011;10575;50.124;8.582;2023-02-05T11:11:52;28.80;;;13.40;;
20828;SDS011;10575;50.124;8.582;2023-02-05T11:14:36;31.38;;;13.30;;
20828;SDS011;10575;50.124;8.582;2023-02-05T11:19:43;30.90;;;13.38;;
20828;SDS011;10575;50.124;8.582;2023-02-05T11:22:29;30.30;;;13.40;;
20828;SDS011;10575;50.124;8.582;2023-02-05T11:27:35;25.23;;;12.95;;
20828;SDS011;10575;50.124;8.582;2023-02-05T11:30:44;27.27;;;13.10;;
20828;SDS011;10575;50.124;8.582;2023-02-05T11:32:51;28.15;;;14.27;;
20828;SDS011;10575;50.124;8.582;2023-02-05T11:35:19;32.65;;;14.18;;
20828;SDS011;10575;50.124;8.582;2023-02-05T11:38:06;27.52;;;14.43;;
20828;SDS011;10575;50.124;8.582;2023-02-05T11:40:49;25.73;;;14.30;;
20828;SDS011;10575;50.124;8.582;2023-02-05T11:43:18;32.70;;;13.88;;
20828;SDS011;10575;50.124;8.582;2023-02-05T11:45:58;26.17;;;13.43;;
20828;SDS011;10575;50.124;8.582;2023-02-05T11:48:28;27.08;;;14.20;;
20828;SDS011;10575;50.124;8.582;2023-02-05T11:51:01;28.90;;;13.93;;
20828;SDS011;10575;50.124;8.582;2023-02-05T11:53:29;27.02;;;14.27;;
20828;SDS011;10575;50.124;8.582;2023-02-05T11:55:57;27.40;;;13.90;;
20828;SDS011;10575;50.124;8.582;2023-02-05T11:58:26;26.25;;;13.57;;
20828;SDS011;10575;50.124;8.582;2023-02-05T12:01:00;27.63;;;14.00;;
20828;SDS011;10575;50.124;8.582;2023-02-05T12:03:29;28.20;;;14.05;;
20828;SDS011;10575;50.124;8.582;2023-02-05T12:08:42;30.23;;;15.07;;
20828;SDS011;10575;50.124;8.582;2023-02-05T12:11:20;29.50;;;14.13;;
20828;SDS011;10575;50.124;8.582;2023-02-05T12:14:16;27.38;;;14.68;;
20828;SDS011;10575;50.124;8.582;2023-02-05T12:25:29;27.02;;;15.40;;
20828;SDS011;10575;50.124;8.582;2023-02-05T12:30:49;25.33;;;14.23;;
20828;SDS011;10575;50.124;8.582;2023-02-05T12:33:33;28.50;;;15.07;;
20828;SDS011;10575;50.124;8.582;2023-02-05T12:44:29;31.30;;;16.00;;
20828;SDS011;10575;50.124;8.582;2023-02-05T12:47:07;35.13;;;16.67;;
20828;SDS011;10575;50.124;8.582;2023-02-05T12:55:36;31.77;;;16.67;;
20828;SDS011;10575;50.124;8.582;2023-02-05T12:58:14;28.50;;;15.73;;
20828;SDS011;10575;50.124;8.582;2023-02-05T13:00:43;28.33;;;15.45;;
20828;SDS011;10575;50.124;8.582;2023-02-05T13:03:27;28.67;;;15.70;;
20828;SDS011;10575;50.124;8.582;2023-02-05T13:06:24;32.25;;;16.23;;
20828;SDS011;10575;50.124;8.582;2023-02-05T13:08:52;24.75;;;13.70;;
20828;SDS011;10575;50.124;8.582;2023-02-05T13:14:22;29.17;;;15.88;;
20828;SDS011;10575;50.124;8.582;2023-02-05T13:19:30;32.00;;;15.52;;
20828;SDS011;10575;50.124;8.582;2023-02-05T13:22:10;27.38;;;15.50;;
20828;SDS011;10575;50.124;8.582;2023-02-05T13:25:12;28.65;;;16.05;;
20828;SDS011;10575;50.124;8.582;2023-02-05T13:31:12;29.35;;;15.68;;
20828;SDS011;10575;50.124;8.582;2023-02-05T13:33:48;23.20;;;14.25;;
20828;SDS011;10575;50.124;8.582;2023-02-05T13:47:43;25.77;;;13.60;;
20828;SDS011;10575;50.124;8.582;2023-02-05T13:50:47;25.17;;;13.70;;
20828;SDS011;10575;50.124;8.582;2023-02-05T13:56:25;22.95;;;13.02;;
20828;SDS011;10575;50.124;8.582;2023-02-05T13:59:01;25.27;;;13.40;;
20828;SDS011;10575;50.124;8.582;2023-02-05T14:01:41;22.35;;;13.23;;
20828;SDS011;10575;50.124;8.582;2023-02-05T14:04:20;27.83;;;14.10;;
20828;SDS011;10575;50.124;8.582;2023-02-05T14:06:57;26.02;;;13.82;;
20828;SDS011;10575;50.124;8.582;2023-02-05T14:09:33;24.52;;;14.07;;
20828;SDS011;10575;50.124;8.582;2023-02-05T14:12:10;26.30;;;13.23;;
20828;SDS011;10575;50.124;8.582;2023-02-05T14:14:45;24.98;;;13.38;;
20828;SDS011;10575;50.124;8.582;2023-02-05T14:22:52;24.10;;;13.73;;
20828;SDS011;10575;50.124;8.582;2023-02-05T14:27:59;27.52;;;13.45;;
20828;SDS011;10575;50.124;8.582;2023-02-05T14:33:36;22.80;;;12.40;;
20828;SDS011;10575;50.124;8.582;2023-02-05T14:38:42;22.15;;;11.68;;
20828;SDS011;10575;50.124;8.582;2023-02-05T14:43:44;21.88;;;11.27;;
20828;SDS011;10575;50.124;8.582;2023-02-05T14:49:04;22.55;;;13.52;;
20828;SDS011;10575;50.124;8.582;2023-02-05T14:51:47;24.35;;;12.77;;
20828;SDS011;10575;50.124;8.582;2023-02-05T14:54:19;22.73;;;13.02;;
20828;SDS011;10575;50.124;8.582;2023-02-05T14:56:52;22.33;;;11.57;;
20828;SDS011;10575;50.124;8.582;2023-02-05T15:02:00;23.17;;;12.10;;
20828;SDS011;10575;50.124;8.582;2023-02-05T15:04:41;20.40;;;11.13;;
20828;SDS011;10575;50.124;8.582;2023-02-05T15:07:15;20.08;;;11.90;;
20828;SDS011;10575;50.124;8.582;2023-02-05T15:10:01;23.20;;;11.98;;
20828;SDS011;10575;50.124;8.582;2023-02-05T15:15:25;25.52;;;13.07;;
20828;SDS011;10575;50.124;8.582;2023-02-05T15:20:52;19.52;;;11.95;;
20828;SDS011;10575;50.124;8.582;2023-02-05T15:26:07;21.40;;;12.13;;
20828;SDS011;10575;50.124;8.582;2023-02-05T15:28:49;19.95;;;12.35;;
20828;SDS011;10575;50.124;8.582;2023-02-05T15:31:28;24.63;;;12.55;;
20828;SDS011;10575;50.124;8.582;2023-02-05T15:42:17;20.52;;;11.88;;
20828;SDS011;10575;50.124;8.582;2023-02-05T15:44:44;22.67;;;12.82;;
20828;SDS011;10575;50.124;8.582;2023-02-05T15:47:11;21.00;;;11.93;;
20828;SDS011;10575;50.124;8.582;2023-02-05T15:49:46;21.75;;;12.15;;
20828;SDS011;10575;50.124;8.582;2023-02-05T15:52:18;21.00;;;12.10;;
20828;SDS011;10575;50.124;8.582;2023-02-05T15:54:46;21.88;;;12.57;;
20828;SDS011;10575;50.124;8.582;2023-02-05T15:57:18;20.63;;;11.98;;
20828;SDS011;10575;50.124;8.582;2023-02-05T15:59:47;21.35;;;13.07;;
20828;SDS011;10575;50.124;8.582;2023-02-05T16:02:16;21.30;;;12.40;;
20828;SDS011;10575;50.124;8.582;2023-02-05T16:04:50;22.55;;;12.23;;
20828;SDS011;10575;50.124;8.582;2023-02-05T16:07:29;23.30;;;11.77;;
20828;SDS011;10575;50.124;8.582;2023-02-05T16:09:59;20.85;;;11.32;;
20828;SDS011;10575;50.124;8.582;2023-02-05T16:12:26;20.25;;;11.90;;
20828;SDS011;10575;50.124;8.582;2023-02-05T16:15:02;22.13;;;13.02;;
20828;SDS011;10575;50.124;8.582;2023-02-05T16:17:31;21.33;;;11.77;;
20828;SDS011;10575;50.124;8.582;2023-02-05T16:25:36;19.48;;;11.82;;
20828;SDS011;10575;50.124;8.582;2023-02-05T16:28:14;19.77;;;12.07;;
20828;SDS011;10575;50.124;8.582;2023-02-05T16:30:46;26.23;;;12.32;;
20828;SDS011;10575;50.124;8.582;2023-02-05T16:35:57;20.83;;;11.57;;
20828;SDS011;10575;50.124;8.582;2023-02-05T16:38:25;25.13;;;12.00;;
20828;SDS011;10575;50.124;8.582;2023-02-05T16:40:53;21.42;;;11.63;;
20828;SDS011;10575;50.124;8.582;2023-02-05T16:43:40;20.25;;;12.23;;
20828;SDS011;10575;50.124;8.582;2023-02-05T16:48:35;22.33;;;11.68;;
20828;SDS011;10575;50.124;8.582;2023-02-05T16:51:03;19.60;;;11.32;;
20828;SDS011;10575;50.124;8.582;2023-02-05T16:53:30;20.75;;;11.00;;
20828;SDS011;10575;50.124;8.582;2023-02-05T16:55:58;24.25;;;12.25;;
20828;SDS011;10575;50.124;8.582;2023-02-05T16:58:37;22.05;;;11.73;;
20828;SDS011;10575;50.124;8.582;2023-02-05T17:01:10;23.02;;;11.77;;
20828;SDS011;10575;50.124;8.582;2023-02-05T17:03:39;19.48;;;11.55;;
20828;SDS011;10575;50.124;8.582;2023-02-05T17:06:10;19.77;;;11.60;;
20828;SDS011;10575;50.124;8.582;2023-02-05T17:08:38;24.20;;;12.23;;
20828;SDS011;10575;50.124;8.582;2023-02-05T17:11:06;22.85;;;12.30;;
20828;SDS011;10575;50.124;8.582;2023-02-05T17:13:52;20.88;;;11.65;;